Rockland, Massachusetts
Current Conditions -  °F | °C
As of 11:53 AM on Thursday 30 Oct 2014 (Local Time) from KOWD Reporting Station
Clear Clear  
Wind Chill: 59°   Ceiling: Unl
Heat Index: 59°   Visibility: 10mi
Dew Point: 38°   Wind: 8mph
Humidity: 46%   Direction: 330°NNW
Pressure: 29.92"   Gusts: NA
Location:  42.13°N, 70.92°W
Report Text: KOWD 301553Z 33007KT 10SM CLR 15/03 A2992 RMK AO2 SLP130 T01500033
Loading
Personal Weather Stations






























Interactive Weather Map
Tropical Storm Tracking
New forecast layout! Learn more

10-Day Weather Forecast

Advertisements
Track Severe Weather on mobile